createdAt,value
2023-05-10T00:00:19.807Z,1.02
2023-05-10T00:02:46.660Z,0.95
2023-05-10T00:05:13.150Z,0.85
2023-05-10T00:07:39.587Z,0.77
2023-05-10T00:10:06.436Z,0.75
2023-05-10T00:12:32.982Z,0.70
2023-05-10T00:14:59.314Z,0.55
2023-05-10T00:17:25.813Z,0.60
2023-05-10T00:19:52.218Z,0.65
2023-05-10T00:22:18.677Z,0.60
2023-05-10T00:24:45.111Z,0.50
2023-05-10T00:27:11.498Z,0.73
2023-05-10T00:29:37.866Z,0.60
2023-05-10T00:32:04.528Z,0.70
2023-05-10T00:34:31.415Z,0.43
2023-05-10T00:36:57.888Z,0.70
2023-05-10T00:39:24.371Z,0.55
2023-05-10T00:41:50.781Z,0.55
2023-05-10T00:44:17.180Z,0.50
2023-05-10T00:46:43.573Z,0.60
2023-05-10T00:49:10.037Z,0.55
2023-05-10T00:51:37.326Z,0.70
2023-05-10T00:54:04.131Z,0.73
2023-05-10T00:56:30.942Z,0.63
2023-05-10T00:58:57.894Z,0.50
2023-05-10T01:01:24.385Z,0.70
2023-05-10T01:03:50.837Z,0.70
2023-05-10T01:06:17.278Z,0.63
2023-05-10T01:08:43.693Z,0.88
2023-05-10T01:11:10.500Z,0.70
2023-05-10T01:13:38.839Z,0.63
2023-05-10T01:16:05.975Z,0.60
2023-05-10T01:18:36.429Z,0.60
2023-05-10T01:21:13.024Z,0.52
2023-05-10T01:24:13.715Z,0.65
2023-05-10T01:27:04.813Z,0.70
2023-05-10T01:29:45.667Z,0.80
2023-05-10T01:32:29.031Z,0.60
2023-05-10T01:35:03.966Z,0.60
2023-05-10T01:37:42.022Z,0.80
2023-05-10T01:40:11.253Z,0.43
2023-05-10T01:42:42.211Z,0.50
2023-05-10T01:45:16.236Z,0.68
2023-05-10T01:47:48.021Z,0.80
2023-05-10T01:50:23.904Z,0.80
2023-05-10T01:52:52.928Z,0.60
2023-05-10T01:55:21.611Z,0.60
2023-05-10T01:57:49.404Z,0.68
2023-05-10T02:00:17.223Z,0.50
2023-05-10T02:02:47.250Z,0.50
2023-05-10T02:05:17.523Z,0.70
2023-05-10T02:07:44.483Z,0.60
2023-05-10T02:10:14.304Z,0.60
2023-05-10T02:12:43.414Z,0.50
2023-05-10T02:15:11.634Z,0.50
2023-05-10T02:17:38.662Z,0.63
2023-05-10T02:20:07.712Z,0.65
2023-05-10T02:22:36.047Z,0.60
2023-05-10T02:25:02.960Z,0.60
2023-05-10T02:27:30.226Z,0.60
2023-05-10T02:29:57.783Z,0.70
2023-05-10T02:32:26.113Z,0.52
2023-05-10T02:34:53.550Z,0.80
2023-05-10T02:37:21.115Z,0.80
2023-05-10T02:39:51.381Z,0.60
2023-05-10T02:42:19.280Z,0.70
2023-05-10T02:44:49.676Z,0.80
2023-05-10T02:47:16.088Z,0.90
2023-05-10T02:49:42.667Z,0.88
2023-05-10T02:52:10.078Z,0.75
2023-05-10T02:54:42.477Z,1.00
2023-05-10T02:57:10.220Z,1.13
2023-05-10T02:59:36.543Z,1.00
2023-05-10T03:02:02.917Z,1.00
2023-05-10T03:04:30.892Z,0.90
2023-05-10T03:06:57.296Z,0.80
2023-05-10T03:09:23.666Z,1.10
2023-05-10T03:11:57.904Z,0.80
2023-05-10T03:14:32.327Z,0.80
2023-05-10T03:17:08.156Z,1.00
2023-05-10T03:19:55.576Z,1.00
2023-05-10T03:22:37.547Z,0.70
2023-05-10T03:25:07.357Z,1.00
2023-05-10T03:27:35.104Z,1.33
2023-05-10T03:30:02.630Z,1.17
2023-05-10T03:32:31.099Z,1.10
2023-05-10T03:34:57.467Z,1.25
2023-05-10T03:37:23.832Z,1.13
2023-05-10T03:39:50.217Z,1.20
2023-05-10T03:42:18.626Z,1.10
2023-05-10T03:44:45.011Z,1.58
2023-05-10T03:47:11.337Z,1.50
2023-05-10T03:49:37.688Z,1.23
2023-05-10T03:52:04.144Z,1.83
2023-05-10T03:54:30.581Z,2.25
2023-05-10T03:56:56.963Z,2.30
2023-05-10T03:59:23.311Z,1.80
2023-05-10T04:01:49.667Z,2.85
2023-05-10T04:04:16.389Z,3.22
2023-05-10T04:06:42.893Z,3.30
2023-05-10T04:09:09.247Z,2.70
2023-05-10T04:11:35.619Z,2.50
2023-05-10T04:14:02.039Z,2.90
2023-05-10T04:16:28.523Z,2.40
2023-05-10T04:18:55.022Z,1.90
2023-05-10T04:21:21.424Z,2.55
2023-05-10T04:23:47.792Z,2.15
2023-05-10T04:26:14.410Z,2.40
2023-05-10T04:28:40.815Z,2.08
2023-05-10T04:31:09.011Z,2.30
2023-05-10T04:33:36.343Z,2.25
2023-05-10T04:36:04.026Z,2.50
2023-05-10T04:38:30.715Z,1.88
2023-05-10T04:41:10.591Z,2.10
2023-05-10T04:43:37.097Z,2.05
2023-05-10T04:46:04.069Z,2.13
2023-05-10T04:48:30.607Z,2.10
2023-05-10T04:50:57.318Z,2.60
2023-05-10T04:53:23.761Z,2.40
2023-05-10T04:55:50.222Z,2.15
2023-05-10T04:58:16.687Z,2.30
2023-05-10T05:00:43.338Z,2.00
2023-05-10T05:03:09.782Z,2.05
2023-05-10T05:05:36.316Z,2.28
2023-05-10T05:08:02.790Z,1.80
2023-05-10T05:10:29.184Z,2.00
2023-05-10T05:12:55.619Z,1.70
2023-05-10T05:15:22.062Z,1.63
2023-05-10T05:17:48.467Z,1.65
2023-05-10T05:20:15.233Z,1.65
2023-05-10T05:22:41.710Z,1.85
2023-05-10T05:25:08.478Z,2.17
2023-05-10T05:27:34.818Z,1.90
2023-05-10T05:30:01.226Z,2.00
2023-05-10T05:32:27.770Z,1.73
2023-05-10T05:34:54.183Z,3.63
2023-05-10T05:37:22.251Z,3.78
2023-05-10T05:39:48.740Z,2.05
2023-05-10T05:42:15.645Z,2.58
2023-05-10T05:44:42.013Z,2.72
2023-05-10T05:47:08.504Z,1.95
2023-05-10T05:49:34.888Z,1.63
2023-05-10T05:52:05.217Z,2.10
2023-05-10T05:54:32.144Z,1.60
2023-05-10T05:57:01.070Z,1.52
2023-05-10T05:59:28.420Z,2.03
2023-05-10T06:01:55.425Z,1.48
2023-05-10T06:04:21.940Z,1.70
2023-05-10T06:06:48.450Z,2.05
2023-05-10T06:09:14.815Z,1.67
2023-05-10T06:11:41.249Z,2.50
2023-05-10T06:14:08.663Z,2.03
2023-05-10T06:16:35.650Z,1.77
2023-05-10T06:19:02.192Z,1.98
2023-05-10T06:21:28.551Z,2.10
2023-05-10T06:23:54.973Z,1.95
2023-05-10T06:26:21.855Z,2.10
2023-05-10T06:28:48.244Z,1.85
2023-05-10T06:31:14.793Z,2.00
2023-05-10T06:33:42.983Z,2.30
2023-05-10T06:36:09.464Z,2.20
2023-05-10T06:38:35.877Z,2.20
2023-05-10T06:41:02.246Z,2.03
2023-05-10T06:43:29.689Z,2.03
2023-05-10T06:45:57.323Z,2.30
2023-05-10T06:48:23.986Z,2.30
2023-05-10T06:50:50.445Z,2.60
2023-05-10T06:53:16.878Z,2.08
2023-05-10T06:55:43.257Z,2.80
2023-05-10T06:58:09.632Z,2.40
2023-05-10T07:00:36.154Z,2.10
2023-05-10T07:03:02.609Z,2.15
2023-05-10T07:05:30.253Z,2.30
2023-05-10T07:07:56.633Z,2.55
2023-05-10T07:10:23.053Z,2.08
2023-05-10T07:12:49.482Z,2.67
2023-05-10T07:15:16.990Z,2.67
2023-05-10T07:17:45.665Z,3.05
2023-05-10T07:20:13.117Z,2.78
2023-05-10T07:22:39.570Z,2.90
2023-05-10T07:25:06.523Z,2.72
2023-05-10T07:27:33.410Z,3.17
2023-05-10T07:29:59.791Z,3.17
2023-05-10T07:32:26.348Z,3.13
2023-05-10T07:34:52.837Z,2.83
2023-05-10T07:37:19.551Z,3.03
2023-05-10T07:39:46.107Z,3.45
2023-05-10T07:42:12.561Z,3.28
2023-05-10T07:44:38.937Z,2.92
2023-05-10T07:47:05.309Z,2.95
2023-05-10T07:49:31.682Z,2.33
2023-05-10T07:51:58.093Z,2.58
2023-05-10T07:54:24.561Z,2.70
2023-05-10T07:56:51.962Z,2.55
2023-05-10T07:59:18.625Z,2.80
2023-05-10T08:01:45.753Z,2.42
2023-05-10T08:04:12.681Z,2.50
2023-05-10T08:06:39.171Z,2.40
2023-05-10T08:09:05.733Z,2.05
2023-05-10T08:11:33.710Z,2.28
2023-05-10T08:14:01.336Z,1.73
2023-05-10T08:16:27.876Z,1.90
2023-05-10T08:18:56.124Z,1.90
2023-05-10T08:21:22.603Z,2.50
2023-05-10T08:23:49.859Z,2.40
2023-05-10T08:26:16.240Z,2.50
2023-05-10T08:28:42.622Z,2.50
2023-05-10T08:31:09.057Z,3.03
2023-05-10T08:33:35.514Z,2.42
2023-05-10T08:36:01.868Z,2.75
2023-05-10T08:38:28.240Z,2.40
2023-05-10T08:40:59.349Z,2.13
2023-05-10T08:43:29.074Z,2.15
2023-05-10T08:45:56.691Z,2.10
2023-05-10T08:48:25.230Z,1.92
2023-05-10T08:50:54.630Z,2.22
2023-05-10T08:53:22.000Z,2.25
2023-05-10T08:55:48.547Z,2.10
2023-05-10T08:58:15.399Z,2.25
2023-05-10T09:00:41.895Z,2.05
2023-05-10T09:03:08.499Z,2.58
2023-05-10T09:05:34.896Z,2.40
2023-05-10T09:08:04.080Z,1.83
2023-05-10T09:10:31.235Z,2.13
2023-05-10T09:12:59.316Z,1.75
2023-05-10T09:15:26.215Z,1.85
2023-05-10T09:17:52.663Z,1.60
2023-05-10T09:20:19.722Z,1.63
2023-05-10T09:22:46.204Z,1.90
2023-05-10T09:25:14.508Z,1.38
2023-05-10T09:27:45.125Z,1.77
2023-05-10T09:30:12.342Z,1.85
2023-05-10T09:32:43.429Z,1.55
2023-05-10T09:35:10.488Z,2.15
2023-05-10T09:37:37.030Z,1.45
2023-05-10T09:40:08.408Z,1.65
2023-05-10T09:42:35.860Z,1.83
2023-05-10T09:45:06.203Z,1.65
2023-05-10T09:47:34.346Z,1.63
2023-05-10T09:50:05.048Z,1.85
2023-05-10T09:52:32.110Z,1.85
2023-05-10T09:54:58.705Z,1.80
2023-05-10T09:57:26.400Z,2.05
2023-05-10T09:59:55.138Z,2.22
2023-05-10T10:02:22.070Z,1.70
2023-05-10T10:04:50.254Z,2.22
2023-05-10T10:07:23.515Z,1.90
2023-05-10T10:09:49.984Z,2.10
2023-05-10T10:12:16.360Z,2.13
2023-05-10T10:14:42.786Z,2.28
2023-05-10T10:17:10.213Z,2.28
2023-05-10T10:19:37.618Z,2.30
2023-05-10T10:22:04.990Z,1.85
2023-05-10T10:24:31.429Z,2.13
2023-05-10T10:27:05.276Z,1.80
2023-05-10T10:29:59.315Z,1.20
2023-05-10T10:32:53.925Z,1.50
2023-05-10T10:35:20.640Z,0.73
2023-05-10T10:37:48.993Z,0.80
2023-05-10T10:40:34.439Z,1.10
2023-05-10T10:43:29.134Z,1.15
2023-05-10T10:46:18.280Z,0.85
2023-05-10T10:49:09.275Z,1.13
2023-05-10T10:51:39.832Z,1.30
2023-05-10T10:54:29.062Z,1.27
2023-05-10T10:57:12.397Z,1.30
2023-05-10T10:59:43.909Z,1.20
2023-05-10T11:02:10.461Z,1.20
2023-05-10T11:04:47.637Z,1.15
2023-05-10T11:07:17.508Z,1.38
2023-05-10T11:09:44.027Z,1.30
2023-05-10T11:12:10.442Z,1.27
2023-05-10T11:14:36.912Z,1.33
2023-05-10T11:17:23.584Z,1.27
2023-05-10T11:20:10.549Z,1.05
2023-05-10T11:22:53.362Z,0.90
2023-05-10T11:25:20.163Z,0.82
2023-05-10T11:27:48.816Z,0.95
2023-05-10T11:30:16.138Z,1.00
2023-05-10T11:32:43.099Z,1.00
2023-05-10T11:35:10.767Z,1.15
2023-05-10T11:37:37.255Z,1.00
2023-05-10T11:40:04.401Z,1.10
2023-05-10T11:42:31.167Z,1.10
2023-05-10T11:44:57.642Z,1.10
2023-05-10T11:47:24.087Z,0.95
2023-05-10T11:49:51.407Z,0.90
2023-05-10T11:52:19.822Z,1.05
2023-05-10T11:54:53.344Z,0.77
2023-05-10T11:57:21.212Z,1.00
2023-05-10T11:59:48.109Z,0.60
2023-05-10T12:02:15.012Z,0.73
2023-05-10T12:04:42.242Z,0.80
2023-05-10T12:07:08.747Z,0.98
2023-05-10T12:09:43.291Z,0.90
2023-05-10T12:12:10.813Z,0.80
2023-05-10T12:14:37.707Z,0.82
2023-05-10T12:17:04.086Z,1.05
2023-05-10T12:19:38.585Z,1.20
2023-05-10T12:22:07.820Z,0.90
2023-05-10T12:24:38.951Z,0.70
2023-05-10T12:27:08.209Z,0.80
2023-05-10T12:29:34.660Z,0.95
2023-05-10T12:32:01.255Z,0.70
2023-05-10T12:34:39.476Z,0.63
2023-05-10T12:37:06.201Z,0.75
2023-05-10T12:39:43.029Z,0.80
2023-05-10T12:42:09.641Z,1.05
2023-05-10T12:44:36.067Z,0.70
2023-05-10T12:47:02.455Z,0.77
2023-05-10T12:49:28.871Z,0.77
2023-05-10T12:51:55.346Z,0.68
2023-05-10T12:54:21.792Z,0.70
2023-05-10T12:56:48.185Z,0.80
2023-05-10T12:59:14.562Z,0.88
2023-05-10T13:01:41.159Z,0.60
2023-05-10T13:04:07.790Z,0.82
2023-05-10T13:06:34.182Z,0.70
2023-05-10T13:09:00.674Z,0.80
2023-05-10T13:11:27.133Z,1.00
2023-05-10T13:13:53.505Z,0.80
2023-05-10T13:16:19.888Z,0.70
2023-05-10T13:18:46.344Z,0.82
2023-05-10T13:21:12.718Z,0.80
2023-05-10T13:23:39.157Z,0.85
2023-05-10T13:26:05.623Z,0.90
2023-05-10T13:28:32.075Z,0.70
2023-05-10T13:30:58.629Z,1.08
2023-05-10T13:33:25.010Z,1.00
2023-05-10T13:35:51.711Z,0.70
2023-05-10T13:38:21.089Z,1.15
2023-05-10T13:40:49.015Z,0.70
2023-05-10T13:43:16.291Z,0.90
2023-05-10T13:45:42.668Z,0.75
2023-05-10T13:48:09.131Z,0.80
2023-05-10T13:50:35.596Z,0.60
2023-05-10T13:53:02.068Z,0.50
2023-05-10T13:55:28.440Z,0.50
2023-05-10T13:57:54.802Z,0.45
2023-05-10T14:00:21.164Z,0.63
2023-05-10T14:02:47.626Z,0.63
2023-05-10T14:05:14.224Z,1.10
2023-05-10T14:07:40.765Z,0.60
2023-05-10T14:10:07.656Z,0.63
2023-05-10T14:12:34.072Z,0.80
2023-05-10T14:15:00.661Z,0.70
2023-05-10T14:17:27.171Z,0.50
2023-05-10T14:19:53.904Z,0.57
2023-05-10T14:22:20.463Z,0.50
2023-05-10T14:24:47.803Z,0.77
2023-05-10T14:27:14.399Z,0.50
2023-05-10T14:29:40.785Z,0.40
2023-05-10T14:32:07.452Z,0.50
2023-05-10T14:34:34.306Z,0.60
2023-05-10T14:37:00.709Z,0.60
2023-05-10T14:39:30.368Z,0.50
2023-05-10T14:41:57.177Z,0.70
2023-05-10T14:44:24.574Z,0.43
2023-05-10T14:46:51.110Z,0.82
2023-05-10T14:49:17.493Z,0.60
2023-05-10T14:51:43.863Z,0.50
2023-05-10T14:54:10.314Z,0.65
2023-05-10T14:56:38.272Z,0.70
2023-05-10T14:59:05.035Z,0.57
2023-05-10T15:01:33.595Z,0.80
2023-05-10T15:04:00.762Z,0.40
2023-05-10T15:06:36.100Z,0.38
2023-05-10T15:09:04.360Z,0.45
2023-05-10T15:11:30.950Z,0.60
2023-05-10T15:13:57.353Z,0.60
2023-05-10T15:16:23.789Z,0.60
2023-05-10T15:18:50.359Z,0.80
2023-05-10T15:21:16.941Z,0.52
2023-05-10T15:23:43.348Z,0.60
2023-05-10T15:26:09.736Z,0.68
2023-05-10T15:28:36.190Z,0.50
2023-05-10T15:31:02.633Z,0.80
2023-05-10T15:33:29.619Z,0.60
2023-05-10T15:35:55.990Z,0.70
2023-05-10T15:38:22.531Z,0.70
2023-05-10T15:40:48.922Z,0.90
2023-05-10T15:43:16.089Z,0.95
2023-05-10T15:45:42.488Z,0.70
2023-05-10T15:48:08.949Z,0.82
2023-05-10T15:50:35.366Z,0.80
2023-05-10T15:53:01.745Z,0.90
2023-05-10T15:55:28.196Z,1.10
2023-05-10T15:57:54.560Z,0.90
2023-05-10T16:00:21.000Z,0.90
2023-05-10T16:02:47.457Z,1.00
2023-05-10T16:05:13.992Z,0.82
2023-05-10T16:07:41.992Z,1.00
2023-05-10T16:10:10.370Z,1.10
2023-05-10T16:12:36.902Z,0.70
2023-05-10T16:15:03.494Z,1.00
2023-05-10T16:17:29.940Z,0.93
2023-05-10T16:19:56.586Z,0.95
2023-05-10T16:22:26.995Z,0.82
2023-05-10T16:24:53.932Z,1.10
2023-05-10T16:27:20.367Z,1.10
2023-05-10T16:29:47.843Z,1.40
2023-05-10T16:32:14.320Z,1.10
2023-05-10T16:34:40.934Z,1.10
2023-05-10T16:37:07.453Z,0.90
2023-05-10T16:39:33.833Z,1.15
2023-05-10T16:42:01.042Z,1.25
2023-05-10T16:44:29.260Z,1.50
2023-05-10T16:46:56.000Z,1.15
2023-05-10T16:49:24.349Z,1.10
2023-05-10T16:51:52.369Z,1.00
2023-05-10T16:54:18.827Z,1.30
2023-05-10T16:56:45.316Z,1.20
2023-05-10T16:59:11.689Z,1.10
2023-05-10T17:01:38.436Z,1.67
2023-05-10T17:04:04.940Z,1.20
2023-05-10T17:06:31.358Z,1.27
2023-05-10T17:08:58.065Z,1.42
2023-05-10T17:11:24.456Z,1.30
2023-05-10T17:13:52.356Z,0.98
2023-05-10T17:16:20.769Z,1.60
2023-05-10T17:18:47.268Z,1.63
2023-05-10T17:21:13.700Z,1.10
2023-05-10T17:23:40.320Z,1.35
2023-05-10T17:26:06.805Z,1.25
2023-05-10T17:28:33.184Z,1.30
2023-05-10T17:30:59.989Z,1.35
2023-05-10T17:33:26.456Z,1.23
2023-05-10T17:35:52.825Z,1.30
2023-05-10T17:38:19.259Z,1.48
2023-05-10T17:40:45.691Z,1.48
2023-05-10T17:43:12.126Z,1.25
2023-05-10T17:45:38.486Z,1.38
2023-05-10T17:48:05.004Z,1.30
2023-05-10T17:50:32.904Z,1.00
2023-05-10T17:52:59.327Z,1.25
2023-05-10T17:55:27.023Z,1.38
2023-05-10T17:57:53.691Z,1.38
2023-05-10T18:00:20.246Z,1.20
2023-05-10T18:02:46.668Z,1.42
2023-05-10T18:05:13.465Z,1.40
2023-05-10T18:07:40.079Z,1.60
2023-05-10T18:10:07.091Z,2.40
2023-05-10T18:12:33.524Z,2.33
2023-05-10T18:14:59.941Z,2.53
2023-05-10T18:17:28.304Z,2.80
2023-05-10T18:19:55.178Z,2.35
2023-05-10T18:22:21.638Z,2.67
2023-05-10T18:24:48.067Z,2.75
2023-05-10T18:27:14.529Z,2.65
2023-05-10T18:29:40.989Z,3.22
2023-05-10T18:32:07.412Z,2.97
2023-05-10T18:34:33.873Z,3.05
2023-05-10T18:37:00.257Z,2.08
2023-05-10T18:39:26.744Z,2.60
2023-05-10T18:41:53.262Z,1.88
2023-05-10T18:44:19.682Z,2.30
2023-05-10T18:46:46.679Z,1.80
2023-05-10T18:49:13.151Z,1.80
2023-05-10T18:51:39.518Z,1.70
2023-05-10T18:54:05.936Z,1.52
2023-05-10T18:56:32.367Z,1.90
2023-05-10T18:58:58.721Z,1.70
2023-05-10T19:01:25.265Z,1.75
2023-05-10T19:03:51.753Z,2.17
2023-05-10T19:06:18.652Z,2.13
2023-05-10T19:08:45.076Z,1.55
2023-05-10T19:11:11.479Z,1.75
2023-05-10T19:13:38.010Z,1.67
2023-05-10T19:16:12.522Z,1.55
2023-05-10T19:18:39.936Z,1.50
2023-05-10T19:21:09.407Z,1.30
2023-05-10T19:23:37.813Z,1.50
2023-05-10T19:26:04.758Z,1.17
2023-05-10T19:28:31.670Z,1.65
2023-05-10T19:30:58.164Z,1.75
2023-05-10T19:33:24.832Z,1.45
2023-05-10T19:35:52.053Z,1.50
2023-05-10T19:38:22.333Z,1.77
2023-05-10T19:40:50.185Z,1.67
2023-05-10T19:43:17.211Z,1.70
2023-05-10T19:45:44.179Z,1.70
2023-05-10T19:48:10.658Z,1.52
2023-05-10T19:50:38.296Z,1.50
2023-05-10T19:53:04.749Z,1.98
2023-05-10T19:55:31.901Z,1.20
2023-05-10T19:58:02.144Z,1.20
2023-05-10T20:00:28.734Z,1.40
2023-05-10T20:02:55.942Z,1.40
2023-05-10T20:05:24.265Z,1.35
2023-05-10T20:07:50.961Z,1.40
2023-05-10T20:10:17.812Z,1.63
2023-05-10T20:12:53.757Z,1.38
2023-05-10T20:15:22.184Z,1.50
2023-05-10T20:17:51.276Z,1.90
2023-05-10T20:20:17.984Z,1.20
2023-05-10T20:22:44.756Z,1.25
2023-05-10T20:25:11.353Z,1.25
2023-05-10T20:27:37.856Z,1.67
2023-05-10T20:30:05.729Z,1.38
2023-05-10T20:32:32.355Z,1.10
2023-05-10T20:34:58.876Z,1.48
2023-05-10T20:37:25.368Z,1.42
2023-05-10T20:39:51.844Z,1.67
2023-05-10T20:42:18.410Z,1.40
2023-05-10T20:44:44.888Z,1.50
2023-05-10T20:47:11.456Z,1.77
2023-05-10T20:49:38.090Z,1.73
2023-05-10T20:52:05.351Z,2.03
2023-05-10T20:54:31.938Z,1.90
2023-05-10T20:57:00.402Z,2.22
2023-05-10T20:59:26.783Z,2.25
2023-05-10T21:01:53.240Z,1.70
2023-05-10T21:04:19.998Z,1.58
2023-05-10T21:06:46.442Z,1.98
2023-05-10T21:09:12.911Z,1.92
2023-05-10T21:11:39.422Z,2.20
2023-05-10T21:14:05.923Z,1.85
2023-05-10T21:16:32.353Z,2.20
2023-05-10T21:18:58.824Z,2.00
2023-05-10T21:21:25.297Z,2.08
2023-05-10T21:23:51.732Z,1.95
2023-05-10T21:26:18.147Z,1.63
2023-05-10T21:28:45.404Z,2.40
2023-05-10T21:31:12.032Z,1.90
2023-05-10T21:33:39.218Z,1.85
2023-05-10T21:36:05.872Z,2.17
2023-05-10T21:38:32.814Z,1.92
2023-05-10T21:40:59.204Z,2.20
2023-05-10T21:43:25.607Z,1.60
2023-05-10T21:45:52.055Z,1.70
2023-05-10T21:48:18.465Z,1.55
2023-05-10T21:50:45.082Z,1.33
2023-05-10T21:53:11.751Z,1.80
2023-05-10T21:55:38.094Z,1.88
2023-05-10T21:58:04.474Z,1.23
2023-05-10T22:00:32.772Z,1.63
2023-05-10T22:03:00.514Z,1.92
2023-05-10T22:05:27.091Z,1.65
2023-05-10T22:07:53.529Z,2.08
2023-05-10T22:10:20.037Z,1.90
2023-05-10T22:12:48.874Z,1.88
2023-05-10T22:15:15.307Z,1.83
2023-05-10T22:17:41.803Z,1.85
2023-05-10T22:20:08.866Z,1.60
2023-05-10T22:22:36.487Z,2.00
2023-05-10T22:25:02.938Z,2.00
2023-05-10T22:27:29.342Z,1.75
2023-05-10T22:29:56.413Z,1.80
2023-05-10T22:32:22.888Z,1.92
2023-05-10T22:34:49.282Z,1.80
2023-05-10T22:37:17.887Z,2.17
2023-05-10T22:39:48.559Z,2.00
2023-05-10T22:42:15.000Z,1.88
2023-05-10T22:44:41.617Z,1.73
2023-05-10T22:47:08.996Z,1.58
2023-05-10T22:49:35.489Z,1.65
2023-05-10T22:52:01.930Z,1.42
2023-05-10T22:54:28.336Z,1.83
2023-05-10T22:56:54.832Z,1.92
2023-05-10T22:59:21.403Z,1.70
2023-05-10T23:01:48.953Z,1.80
2023-05-10T23:04:18.282Z,1.77
2023-05-10T23:06:45.827Z,1.80
2023-05-10T23:09:12.257Z,1.88
2023-05-10T23:11:38.679Z,1.70
2023-05-10T23:14:05.125Z,2.08
2023-05-10T23:16:31.566Z,1.80
2023-05-10T23:18:58.132Z,1.85
2023-05-10T23:21:25.268Z,2.20
2023-05-10T23:23:52.418Z,1.65
2023-05-10T23:26:19.072Z,1.88
2023-05-10T23:28:45.545Z,1.90
2023-05-10T23:31:11.943Z,1.75
2023-05-10T23:33:38.365Z,1.50
2023-05-10T23:36:05.096Z,1.60
2023-05-10T23:38:31.625Z,1.48
2023-05-10T23:40:58.150Z,1.80
2023-05-10T23:43:25.320Z,2.13
2023-05-10T23:45:55.603Z,1.65
2023-05-10T23:48:22.108Z,1.83
2023-05-10T23:50:48.683Z,1.45
2023-05-10T23:53:15.438Z,1.90
2023-05-10T23:55:42.299Z,1.75
2023-05-10T23:58:08.722Z,2.00
